This is the latest recevied weather packets stored in our database for station/object W5CRT. If no packets are shown the sender has not sent any weather packets the latest 10 day(s).
| Time | Temp. | Humidity | Pressure | Rain* | Wind** | Luminosity | Snow |
|---|---|---|---|---|---|---|---|
| 1777577343 | 16.67° C | 76% | 1011.4 hPa | 0 mm | - | 92 W/m² | - |
| 1777577038 | 16.67° C | 75% | 1011 hPa | 0 mm | - | 172 W/m² | - |
| 1777576736 | 16.67° C | 75% | 1010.9 hPa | 0 mm | - | 148 W/m² | - |
| 1777576434 | 16.67° C | 75% | 1011 hPa | 0 mm | - | 158 W/m² | - |
| 1777576132 | 16.67° C | 75% | 1010.3 hPa | 0 mm | - | 254 W/m² | - |
| 1777575832 | 16.67° C | 75% | 1010.6 hPa | 0 mm | - | 261 W/m² | - |
| 1777575529 | 16.67° C | 75% | 1010.9 hPa | 0 mm | - | 217 W/m² | - |
| 1777575225 | 16.67° C | 75% | 1010.8 hPa | 0 mm | - | 169 W/m² | - |
| 1777574921 | 17.22° C | 75% | 1011.2 hPa | 0 mm | - | 170 W/m² | - |
| 1777574618 | 17.22° C | 76% | 1011.6 hPa | 0 mm | - | 191 W/m² | - |
| 1777574314 | 17.22° C | 75% | 1011.5 hPa | 0 mm | - | 253 W/m² | - |
| 1777574010 | 17.22° C | 76% | 1011.5 hPa | 0 mm | - | 311 W/m² | - |
| 1777573709 | 17.22° C | 77% | 1011.6 hPa | 0 mm | - | 321 W/m² | - |
| 1777573406 | 16.67° C | 78% | 1011.5 hPa | 0 mm | - | 360 W/m² | - |
| 1777573102 | 16.67° C | 78% | 1011.6 hPa | 0 mm | - | 283 W/m² | - |
| 1777572799 | 16.67° C | 78% | 1012.1 hPa | 0 mm | - | 218 W/m² | - |
| 1777572495 | 16.67° C | 78% | 1012.2 hPa | 0 mm | - | 206 W/m² | - |
| 1777572190 | 16.67° C | 78% | 1012.5 hPa | 0 mm | - | 176 W/m² | - |
| 1777571886 | 16.67° C | 79% | 1012.7 hPa | 0 mm | - | 116 W/m² | - |
| 1777571581 | 16.67° C | 78% | 1013.1 hPa | 0 mm | - | 105 W/m² | - |
| 1777571279 | 16.67° C | 78% | 1013 hPa | 0 mm | - | 116 W/m² | - |
| 1777570974 | 16.67° C | 78% | 1013.1 hPa | 0 mm | - | 119 W/m² | - |
| 1777570670 | 16.67° C | 78% | 1013.4 hPa | 0 mm | - | 145 W/m² | - |
| 1777570368 | 16.67° C | 77% | 1013.8 hPa | 0 mm | - | 136 W/m² | - |
| 1777570063 | 16.67° C | 78% | 1013.8 hPa | 0 mm | - | 120 W/m² | - |
* Rain latest hour (hover to see other rain measurements)
** Current wind speed in m/s (hover to see current wind gust speed)